createdAt,value
2018-08-19T00:01:53.090Z,20.70
2018-08-19T00:04:20.390Z,20.80
2018-08-19T00:06:47.735Z,20.80
2018-08-19T00:09:15.102Z,20.70
2018-08-19T00:11:43.172Z,20.60
2018-08-19T00:14:22.062Z,20.60
2018-08-19T00:16:49.387Z,20.60
2018-08-19T00:19:16.702Z,20.70
2018-08-19T00:21:44.031Z,20.70
2018-08-19T00:24:11.344Z,20.80
2018-08-19T00:26:38.640Z,20.80
2018-08-19T00:29:05.964Z,20.80
2018-08-19T00:31:33.279Z,20.60
2018-08-19T00:34:00.579Z,20.60
2018-08-19T00:36:30.346Z,20.50
2018-08-19T00:38:57.641Z,20.40
2018-08-19T00:41:24.971Z,20.40
2018-08-19T00:43:52.975Z,20.40
2018-08-19T00:46:27.495Z,20.50
2018-08-19T00:48:54.831Z,20.50
2018-08-19T00:51:22.155Z,20.50
2018-08-19T00:53:49.450Z,20.50
2018-08-19T00:56:16.789Z,20.40
2018-08-19T00:58:44.138Z,20.40
2018-08-19T01:01:22.978Z,20.50
2018-08-19T01:03:53.591Z,20.40
2018-08-19T01:06:20.904Z,20.30
2018-08-19T01:08:48.190Z,20.30
2018-08-19T01:11:25.162Z,20.40
2018-08-19T01:13:52.454Z,20.40
2018-08-19T01:16:19.775Z,20.30
2018-08-19T01:18:47.071Z,20.30
2018-08-19T01:21:14.386Z,20.20
2018-08-19T01:23:41.710Z,20.10
2018-08-19T01:26:09.016Z,19.90
2018-08-19T01:28:36.306Z,19.80
2018-08-19T01:31:03.762Z,19.90
2018-08-19T01:33:31.074Z,19.80
2018-08-19T01:35:58.396Z,19.70
2018-08-19T01:38:25.723Z,19.80
2018-08-19T01:40:53.041Z,19.80
2018-08-19T01:43:20.355Z,19.80
2018-08-19T01:45:47.646Z,19.90
2018-08-19T01:48:14.968Z,19.90
2018-08-19T01:50:42.269Z,19.80
2018-08-19T01:53:09.677Z,19.80
2018-08-19T01:55:36.982Z,19.80
2018-08-19T01:58:04.547Z,19.70
2018-08-19T02:00:31.861Z,19.80
2018-08-19T02:03:01.877Z,19.70
2018-08-19T02:05:29.198Z,19.60
2018-08-19T02:07:57.193Z,19.60
2018-08-19T02:10:24.911Z,19.60
2018-08-19T02:12:52.432Z,19.60
2018-08-19T02:15:20.642Z,19.50
2018-08-19T02:17:48.393Z,19.50
2018-08-19T02:20:15.850Z,19.60
2018-08-19T02:22:43.182Z,19.60
2018-08-19T02:25:10.483Z,19.60
2018-08-19T02:27:37.827Z,19.50
2018-08-19T02:30:05.133Z,19.50
2018-08-19T02:32:32.471Z,19.50
2018-08-19T02:34:59.758Z,19.40
2018-08-19T02:37:27.095Z,19.40
2018-08-19T02:39:54.379Z,19.50
2018-08-19T02:42:21.713Z,19.60
2018-08-19T02:44:49.366Z,19.50
2018-08-19T02:47:16.668Z,19.50
2018-08-19T02:49:43.960Z,19.40
2018-08-19T02:52:11.296Z,19.30
2018-08-19T02:54:38.595Z,19.20
2018-08-19T02:57:05.931Z,19.30
2018-08-19T02:59:33.219Z,19.20
2018-08-19T03:02:00.571Z,19.20
2018-08-19T03:04:27.903Z,19.30
2018-08-19T03:06:55.241Z,19.30
2018-08-19T03:09:22.568Z,19.20
2018-08-19T03:12:00.031Z,19.00
2018-08-19T03:14:27.398Z,19.00
2018-08-19T03:16:54.754Z,19.00
2018-08-19T03:19:22.075Z,19.10
2018-08-19T03:21:49.417Z,19.00
2018-08-19T03:24:16.730Z,19.00
2018-08-19T03:26:44.064Z,19.00
2018-08-19T03:29:11.404Z,18.90
2018-08-19T03:31:38.787Z,18.90
2018-08-19T03:34:06.175Z,18.90
2018-08-19T03:36:33.560Z,18.90
2018-08-19T03:39:10.768Z,18.80
2018-08-19T03:41:38.099Z,18.80
2018-08-19T03:44:05.442Z,18.80
2018-08-19T03:46:32.780Z,18.80
2018-08-19T03:49:00.219Z,18.70
2018-08-19T03:51:27.947Z,18.80
2018-08-19T03:53:55.331Z,18.90
2018-08-19T03:56:22.681Z,18.80
2018-08-19T03:58:50.021Z,18.70
2018-08-19T04:01:27.486Z,18.60
2018-08-19T04:03:54.863Z,18.70
2018-08-19T04:06:22.198Z,18.70
2018-08-19T04:08:49.539Z,18.50
2018-08-19T04:11:16.863Z,18.50
2018-08-19T04:13:44.251Z,18.40
2018-08-19T04:16:11.700Z,18.50
2018-08-19T04:18:39.039Z,18.50
2018-08-19T04:21:06.665Z,18.60
2018-08-19T04:23:34.090Z,18.50
2018-08-19T04:26:01.314Z,18.50
2018-08-19T04:28:28.688Z,18.50
2018-08-19T04:30:56.096Z,18.50
2018-08-19T04:33:23.450Z,18.40
2018-08-19T04:35:50.776Z,18.50
2018-08-19T04:38:18.088Z,18.40
2018-08-19T04:40:45.440Z,18.40
2018-08-19T04:43:12.799Z,18.40
2018-08-19T04:45:40.136Z,18.40
2018-08-19T04:48:07.451Z,18.40
2018-08-19T04:50:34.802Z,18.40
2018-08-19T04:53:02.196Z,18.60
2018-08-19T04:55:29.550Z,18.60
2018-08-19T04:57:56.990Z,18.70
2018-08-19T05:00:24.344Z,18.70
2018-08-19T05:02:51.661Z,18.80
2018-08-19T05:05:19.018Z,18.80
2018-08-19T05:07:46.429Z,18.80
2018-08-19T05:10:13.753Z,18.70
2018-08-19T05:12:41.062Z,18.60
2018-08-19T05:15:08.412Z,18.50
2018-08-19T05:17:35.764Z,18.60
2018-08-19T05:20:12.175Z,18.60
2018-08-19T05:22:39.872Z,18.70
2018-08-19T05:25:07.192Z,18.70
2018-08-19T05:27:34.531Z,18.80
2018-08-19T05:30:01.860Z,18.90
2018-08-19T05:32:29.244Z,19.00
2018-08-19T05:34:56.571Z,19.10
2018-08-19T05:37:23.928Z,19.20
2018-08-19T05:39:51.273Z,19.30
2018-08-19T05:42:18.605Z,19.40
2018-08-19T05:44:45.931Z,19.40
2018-08-19T05:47:16.296Z,19.50
2018-08-19T05:49:43.562Z,19.50
2018-08-19T05:52:10.898Z,19.60
2018-08-19T05:54:38.245Z,19.70
2018-08-19T05:57:05.563Z,19.70
2018-08-19T05:59:33.476Z,19.80
2018-08-19T06:02:00.884Z,19.80
2018-08-19T06:04:28.210Z,19.90
2018-08-19T06:06:55.538Z,19.90
2018-08-19T06:09:22.864Z,20.00
2018-08-19T06:11:50.175Z,20.00
2018-08-19T06:14:17.500Z,20.10
2018-08-19T06:16:44.810Z,20.20
2018-08-19T06:19:12.120Z,20.30
2018-08-19T06:21:39.458Z,20.30
2018-08-19T06:24:06.835Z,20.40
2018-08-19T06:26:34.157Z,20.40
2018-08-19T06:29:01.482Z,20.50
2018-08-19T06:31:28.793Z,20.50
2018-08-19T06:33:56.109Z,20.60
2018-08-19T06:36:23.449Z,20.70
2018-08-19T06:38:50.764Z,20.70
2018-08-19T06:41:18.077Z,20.80
2018-08-19T06:43:45.566Z,20.80
2018-08-19T06:46:13.004Z,20.90
2018-08-19T06:48:40.286Z,21.00
2018-08-19T06:51:07.650Z,21.00
2018-08-19T06:53:34.966Z,21.00
2018-08-19T06:56:02.278Z,21.00
2018-08-19T06:58:29.610Z,21.10
2018-08-19T07:00:56.956Z,21.30
2018-08-19T07:03:24.384Z,21.40
2018-08-19T07:06:03.056Z,21.40
2018-08-19T07:08:30.457Z,21.40
2018-08-19T07:10:57.787Z,21.50
2018-08-19T07:13:25.130Z,21.60
2018-08-19T07:15:52.453Z,21.70
2018-08-19T07:18:19.754Z,21.80
2018-08-19T07:20:47.087Z,21.80
2018-08-19T07:23:14.401Z,22.00
2018-08-19T07:25:41.730Z,22.00
2018-08-19T07:28:09.644Z,22.00
2018-08-19T07:30:37.071Z,22.10
2018-08-19T07:33:04.607Z,22.20
2018-08-19T07:35:31.915Z,22.30
2018-08-19T07:37:59.434Z,22.30
2018-08-19T07:40:26.766Z,22.30
2018-08-19T07:42:54.157Z,22.30
2018-08-19T07:45:21.533Z,22.40
2018-08-19T07:47:48.830Z,22.50
2018-08-19T07:50:16.204Z,22.50
2018-08-19T07:52:43.544Z,22.60
2018-08-19T07:55:10.856Z,22.70
2018-08-19T07:57:40.340Z,22.70
2018-08-19T08:00:08.031Z,22.60
2018-08-19T08:02:35.318Z,22.80
2018-08-19T08:05:02.799Z,22.80
2018-08-19T08:07:30.849Z,23.00
2018-08-19T08:09:58.202Z,23.00
2018-08-19T08:12:25.534Z,23.10
2018-08-19T08:14:52.898Z,23.30
2018-08-19T08:17:20.211Z,23.40
2018-08-19T08:19:47.607Z,23.60
2018-08-19T08:22:15.015Z,23.70
2018-08-19T08:24:42.516Z,23.70
2018-08-19T08:27:10.026Z,23.70
2018-08-19T08:29:37.519Z,23.90
2018-08-19T08:32:04.854Z,24.00
2018-08-19T08:34:32.188Z,24.10
2018-08-19T08:36:59.553Z,24.20
2018-08-19T08:39:26.880Z,24.40
2018-08-19T08:41:54.302Z,24.40
2018-08-19T08:44:21.623Z,24.40
2018-08-19T08:46:48.992Z,24.50
2018-08-19T08:49:16.322Z,24.60
2018-08-19T08:51:43.630Z,24.80
2018-08-19T08:54:11.051Z,24.80
2018-08-19T08:56:38.471Z,24.90
2018-08-19T08:59:05.823Z,25.00
2018-08-19T09:01:33.244Z,25.10
2018-08-19T09:04:00.628Z,25.30
2018-08-19T09:06:27.919Z,25.30
2018-08-19T09:08:55.603Z,25.30
2018-08-19T09:11:23.086Z,25.30
2018-08-19T09:13:50.465Z,25.40
2018-08-19T09:16:17.743Z,25.50
2018-08-19T09:18:45.106Z,25.60
2018-08-19T09:21:12.435Z,25.70
2018-08-19T09:23:39.760Z,25.70
2018-08-19T09:26:07.283Z,25.70
2018-08-19T09:28:34.589Z,25.90
2018-08-19T09:31:01.951Z,25.90
2018-08-19T09:33:29.431Z,25.90
2018-08-19T09:35:56.758Z,25.90
2018-08-19T09:38:24.070Z,26.00
2018-08-19T09:40:51.528Z,26.10
2018-08-19T09:43:18.755Z,26.10
2018-08-19T09:45:46.179Z,26.10
2018-08-19T09:48:13.503Z,26.20
2018-08-19T09:50:40.851Z,26.30
2018-08-19T09:53:08.158Z,26.30
2018-08-19T09:55:35.495Z,26.30
2018-08-19T09:58:02.861Z,25.80
2018-08-19T10:00:30.185Z,25.40
2018-08-19T10:02:57.806Z,25.30
2018-08-19T10:05:25.114Z,25.40
2018-08-19T10:07:52.523Z,25.50
2018-08-19T10:10:19.769Z,25.80
2018-08-19T10:12:47.152Z,26.00
2018-08-19T10:15:14.491Z,26.10
2018-08-19T10:17:41.930Z,26.30
2018-08-19T10:20:09.188Z,26.40
2018-08-19T10:22:36.597Z,26.60
2018-08-19T10:25:03.952Z,26.20
2018-08-19T10:27:31.330Z,26.10
2018-08-19T10:29:58.671Z,25.80
2018-08-19T10:32:25.989Z,25.60
2018-08-19T10:34:53.339Z,25.70
2018-08-19T10:37:20.707Z,25.90
2018-08-19T10:39:48.061Z,26.10
2018-08-19T10:42:21.429Z,26.00
2018-08-19T10:44:48.747Z,26.20
2018-08-19T10:47:16.036Z,26.50
2018-08-19T10:49:48.481Z,26.40
2018-08-19T10:52:16.052Z,26.30
2018-08-19T10:54:44.859Z,26.50
2018-08-19T10:57:17.610Z,26.50
2018-08-19T10:59:45.001Z,26.60
2018-08-19T11:02:12.272Z,26.80
2018-08-19T11:04:39.603Z,27.10
2018-08-19T11:07:06.967Z,27.30
2018-08-19T11:09:44.511Z,27.50
2018-08-19T11:12:11.959Z,27.50
2018-08-19T11:14:39.263Z,27.50
2018-08-19T11:17:06.572Z,27.60
2018-08-19T11:19:33.883Z,27.50
2018-08-19T11:22:01.243Z,27.40
2018-08-19T11:24:28.548Z,27.50
2018-08-19T11:26:55.847Z,27.70
2018-08-19T11:29:23.171Z,27.50
2018-08-19T11:31:50.502Z,27.20
2018-08-19T11:34:17.805Z,27.00
2018-08-19T11:36:45.148Z,27.20
2018-08-19T11:39:12.632Z,27.50
2018-08-19T11:41:39.989Z,27.70
2018-08-19T11:44:09.497Z,27.80
2018-08-19T11:46:36.819Z,27.90
2018-08-19T11:49:04.151Z,28.00
2018-08-19T11:51:44.880Z,27.90
2018-08-19T11:54:12.172Z,27.70
2018-08-19T11:56:39.511Z,27.90
2018-08-19T11:59:07.311Z,28.10
2018-08-19T12:01:34.674Z,28.20
2018-08-19T12:04:05.429Z,28.30
2018-08-19T12:06:32.758Z,28.40
2018-08-19T12:09:00.113Z,28.10
2018-08-19T12:11:28.614Z,28.10
2018-08-19T12:13:55.949Z,28.00
2018-08-19T12:16:23.367Z,27.80
2018-08-19T12:18:50.725Z,27.70
2018-08-19T12:21:18.042Z,27.80
2018-08-19T12:23:45.366Z,27.80
2018-08-19T12:26:12.696Z,27.80
2018-08-19T12:28:39.985Z,27.90
2018-08-19T12:31:09.718Z,28.00
2018-08-19T12:33:37.057Z,28.00
2018-08-19T12:36:04.843Z,27.90
2018-08-19T12:38:32.795Z,27.90
2018-08-19T12:41:02.185Z,28.00
2018-08-19T12:43:29.538Z,28.30
2018-08-19T12:45:58.074Z,28.60
2018-08-19T12:48:25.459Z,28.80
2018-08-19T12:50:53.074Z,28.80
2018-08-19T12:53:20.646Z,28.90
2018-08-19T12:55:48.029Z,28.80
2018-08-19T12:58:15.279Z,28.80
2018-08-19T13:00:42.665Z,28.80
2018-08-19T13:03:10.237Z,28.70
2018-08-19T13:05:49.171Z,28.60
2018-08-19T13:08:16.495Z,28.80
2018-08-19T13:10:43.802Z,29.10
2018-08-19T13:13:11.153Z,28.90
2018-08-19T13:15:38.460Z,28.90
2018-08-19T13:18:05.801Z,28.70
2018-08-19T13:20:33.313Z,28.70
2018-08-19T13:23:00.697Z,28.90
2018-08-19T13:25:28.079Z,29.30
2018-08-19T13:27:55.440Z,29.30
2018-08-19T13:30:22.751Z,29.10
2018-08-19T13:32:50.071Z,29.10
2018-08-19T13:35:17.394Z,29.30
2018-08-19T13:37:44.692Z,29.40
2018-08-19T13:40:11.999Z,29.50
2018-08-19T13:42:39.323Z,29.60
2018-08-19T13:45:06.706Z,29.80
2018-08-19T13:47:33.996Z,29.80
2018-08-19T13:50:01.360Z,29.60
2018-08-19T13:52:28.671Z,29.50
2018-08-19T13:54:58.819Z,29.50
2018-08-19T13:57:26.166Z,29.50
2018-08-19T13:59:53.533Z,29.60
2018-08-19T14:02:20.872Z,29.90
2018-08-19T14:04:48.189Z,29.90
2018-08-19T14:07:15.611Z,29.70
2018-08-19T14:09:42.902Z,29.60
2018-08-19T14:12:10.251Z,29.70
2018-08-19T14:14:37.545Z,30.00
2018-08-19T14:17:05.764Z,30.20
2018-08-19T14:19:36.312Z,30.10
2018-08-19T14:22:03.803Z,30.00
2018-08-19T14:24:31.173Z,29.90
2018-08-19T14:26:58.514Z,29.90
2018-08-19T14:29:25.835Z,29.90
2018-08-19T14:31:53.156Z,30.00
2018-08-19T14:34:20.461Z,30.20
2018-08-19T14:36:47.800Z,30.10
2018-08-19T14:39:15.095Z,30.10
2018-08-19T14:41:42.411Z,30.10
2018-08-19T14:44:09.718Z,30.20
2018-08-19T14:46:37.091Z,30.40
2018-08-19T14:49:04.395Z,30.60
2018-08-19T14:52:04.973Z,30.80
2018-08-19T14:54:32.359Z,31.00
2018-08-19T14:56:59.684Z,31.20
2018-08-19T14:59:27.222Z,31.40
2018-08-19T15:01:54.565Z,31.50
2018-08-19T15:04:21.895Z,31.60
2018-08-19T15:06:49.195Z,31.50
2018-08-19T15:09:18.663Z,31.20
2018-08-19T15:11:46.077Z,31.20
2018-08-19T15:14:14.016Z,31.30
2018-08-19T15:16:41.302Z,31.20
2018-08-19T15:19:09.706Z,31.40
2018-08-19T15:21:37.047Z,31.60
2018-08-19T15:24:04.696Z,31.70
2018-08-19T15:26:32.022Z,31.60
2018-08-19T15:28:59.355Z,31.70
2018-08-19T15:31:26.707Z,31.40
2018-08-19T15:33:54.070Z,31.20
2018-08-19T15:36:21.435Z,31.20
2018-08-19T15:38:48.746Z,31.50
2018-08-19T15:41:16.136Z,31.70
2018-08-19T15:43:43.470Z,31.70
2018-08-19T15:46:10.802Z,31.40
2018-08-19T15:48:38.090Z,31.30
2018-08-19T15:51:05.462Z,31.40
2018-08-19T15:53:32.787Z,31.50
2018-08-19T15:56:00.193Z,31.50
2018-08-19T15:58:28.181Z,31.80
2018-08-19T16:00:55.563Z,32.10
2018-08-19T16:03:22.944Z,32.30
2018-08-19T16:05:50.293Z,32.60
2018-08-19T16:08:17.626Z,32.90
2018-08-19T16:10:44.951Z,33.30
2018-08-19T16:13:12.736Z,33.50
2018-08-19T16:15:40.063Z,33.70
2018-08-19T16:18:07.626Z,33.60
2018-08-19T16:20:34.969Z,33.40
2018-08-19T16:23:02.287Z,32.80
2018-08-19T16:25:29.618Z,32.70
2018-08-19T16:27:56.939Z,33.20
2018-08-19T16:30:24.348Z,34.00
2018-08-19T16:32:51.650Z,35.00
2018-08-19T16:35:18.967Z,36.00
2018-08-19T16:37:46.259Z,37.00
2018-08-19T16:40:13.580Z,38.10
2018-08-19T16:42:41.038Z,39.20
2018-08-19T16:45:08.426Z,40.00
2018-08-19T16:47:35.743Z,40.50
2018-08-19T16:50:03.878Z,40.80
2018-08-19T16:52:31.579Z,40.80
2018-08-19T16:54:58.883Z,39.90
2018-08-19T16:57:26.282Z,39.40
2018-08-19T16:59:53.584Z,39.30
2018-08-19T17:02:21.012Z,39.20
2018-08-19T17:04:48.334Z,39.00
2018-08-19T17:07:15.993Z,38.90
2018-08-19T17:09:43.410Z,38.70
2018-08-19T17:12:10.664Z,38.30
2018-08-19T17:14:38.026Z,37.80
2018-08-19T17:17:05.406Z,36.80
2018-08-19T17:19:32.706Z,35.60
2018-08-19T17:22:03.797Z,35.20
2018-08-19T17:24:31.529Z,34.80
2018-08-19T17:26:58.943Z,34.00
2018-08-19T17:29:27.127Z,33.50
2018-08-19T17:31:54.434Z,33.00
2018-08-19T17:34:21.789Z,32.70
2018-08-19T17:36:49.078Z,32.60
2018-08-19T17:39:16.438Z,32.20
2018-08-19T17:41:43.694Z,31.70
2018-08-19T17:44:11.014Z,31.30
2018-08-19T17:46:38.332Z,31.40
2018-08-19T17:49:06.627Z,31.60
2018-08-19T17:51:33.996Z,31.40
2018-08-19T17:54:01.314Z,31.40
2018-08-19T17:56:28.725Z,31.40
2018-08-19T17:58:57.339Z,31.60
2018-08-19T18:01:24.734Z,31.20
2018-08-19T18:03:52.096Z,30.80
2018-08-19T18:06:19.423Z,30.60
2018-08-19T18:08:46.736Z,30.50
2018-08-19T18:11:14.063Z,30.20
2018-08-19T18:13:41.379Z,30.00
2018-08-19T18:16:09.686Z,29.80
2018-08-19T18:18:37.023Z,29.60
2018-08-19T18:21:04.344Z,29.20
2018-08-19T18:23:31.692Z,28.90
2018-08-19T18:25:59.006Z,28.80
2018-08-19T18:28:26.353Z,28.60
2018-08-19T18:30:54.842Z,28.60
2018-08-19T18:33:22.147Z,28.50
2018-08-19T18:35:49.498Z,28.40
2018-08-19T18:38:25.251Z,28.30
2018-08-19T18:40:52.568Z,28.30
2018-08-19T18:43:19.881Z,28.10
2018-08-19T18:45:48.245Z,28.00
2018-08-19T18:48:17.575Z,28.00
2018-08-19T18:50:45.168Z,28.00
2018-08-19T18:53:12.534Z,28.00
2018-08-19T18:55:39.822Z,27.90
2018-08-19T18:58:07.964Z,27.80
2018-08-19T19:00:36.072Z,27.80
2018-08-19T19:03:03.410Z,27.70
2018-08-19T19:05:33.648Z,27.70
2018-08-19T19:08:01.009Z,27.70
2018-08-19T19:10:28.320Z,27.70
2018-08-19T19:12:55.678Z,27.60
2018-08-19T19:15:22.978Z,27.50
2018-08-19T19:17:50.301Z,27.30
2018-08-19T19:20:17.602Z,27.10
2018-08-19T19:22:44.954Z,27.00
2018-08-19T19:25:12.266Z,27.00
2018-08-19T19:27:39.594Z,27.00
2018-08-19T19:30:06.919Z,26.90
2018-08-19T19:32:34.300Z,27.00
2018-08-19T19:35:01.636Z,27.00
2018-08-19T19:37:28.957Z,26.90
2018-08-19T19:39:56.277Z,26.90
2018-08-19T19:42:23.612Z,27.10
2018-08-19T19:44:50.967Z,27.20
2018-08-19T19:47:18.316Z,27.30
2018-08-19T19:49:45.770Z,27.30
2018-08-19T19:52:12.963Z,27.00
2018-08-19T19:54:40.292Z,26.70
2018-08-19T19:57:07.667Z,26.60
2018-08-19T19:59:35.029Z,26.50
2018-08-19T20:02:02.605Z,26.40
2018-08-19T20:04:33.260Z,26.30
2018-08-19T20:07:00.632Z,26.20
2018-08-19T20:09:27.960Z,26.20
2018-08-19T20:11:56.224Z,26.20
2018-08-19T20:14:23.630Z,26.10
2018-08-19T20:16:50.960Z,26.10
2018-08-19T20:19:18.291Z,26.20
2018-08-19T20:21:45.705Z,26.20
2018-08-19T20:24:12.994Z,26.10
2018-08-19T20:26:40.344Z,26.00
2018-08-19T20:29:07.882Z,25.80
2018-08-19T20:31:35.245Z,25.70
2018-08-19T20:34:02.758Z,25.60
2018-08-19T20:36:30.035Z,25.50
2018-08-19T20:38:57.369Z,25.60
2018-08-19T20:41:24.678Z,25.60
2018-08-19T20:43:51.994Z,25.60
2018-08-19T20:46:19.290Z,25.50
2018-08-19T20:48:46.717Z,25.40
2018-08-19T20:51:14.056Z,25.40
2018-08-19T20:53:41.394Z,25.50
2018-08-19T20:56:08.758Z,25.50
2018-08-19T20:58:36.181Z,25.50
2018-08-19T21:01:04.563Z,25.50
2018-08-19T21:03:32.074Z,25.40
2018-08-19T21:05:59.332Z,25.40
2018-08-19T21:08:26.655Z,25.40
2018-08-19T21:10:53.993Z,25.50
2018-08-19T21:13:21.290Z,25.50
2018-08-19T21:15:48.619Z,25.50
2018-08-19T21:18:15.954Z,25.40
2018-08-19T21:20:43.430Z,25.40
2018-08-19T21:23:11.015Z,25.50
2018-08-19T21:25:39.439Z,25.50
2018-08-19T21:28:06.831Z,25.60
2018-08-19T21:30:34.205Z,25.70
2018-08-19T21:33:01.478Z,25.70
2018-08-19T21:35:30.264Z,25.60
2018-08-19T21:37:57.592Z,25.70
2018-08-19T21:40:24.886Z,25.60
2018-08-19T21:42:55.241Z,25.80
2018-08-19T21:45:22.560Z,25.60
2018-08-19T21:47:49.916Z,25.70
2018-08-19T21:50:17.266Z,25.40
2018-08-19T21:52:56.266Z,25.30
2018-08-19T21:55:23.567Z,25.40
2018-08-19T21:57:50.878Z,25.30
2018-08-19T22:00:18.195Z,25.20
2018-08-19T22:02:45.591Z,25.20
2018-08-19T22:05:12.895Z,25.20
2018-08-19T22:07:40.232Z,25.20
2018-08-19T22:10:07.542Z,25.10
2018-08-19T22:12:34.870Z,24.90
2018-08-19T22:15:02.199Z,24.90
2018-08-19T22:17:29.526Z,25.00
2018-08-19T22:19:57.196Z,24.90
2018-08-19T22:22:24.436Z,24.80
2018-08-19T22:24:51.756Z,24.70
2018-08-19T22:27:19.087Z,24.70
2018-08-19T22:29:46.835Z,24.70
2018-08-19T22:32:14.126Z,24.80
2018-08-19T22:34:41.433Z,24.60
2018-08-19T22:37:08.780Z,24.50
2018-08-19T22:39:36.122Z,24.50
2018-08-19T22:42:03.458Z,24.60
2018-08-19T22:44:30.778Z,24.40
2018-08-19T22:46:58.116Z,24.40
2018-08-19T22:49:26.635Z,24.30
2018-08-19T22:51:54.440Z,24.30
2018-08-19T22:54:21.767Z,24.20
2018-08-19T22:56:49.204Z,24.20
2018-08-19T22:59:16.540Z,24.30
2018-08-19T23:01:43.834Z,24.20
2018-08-19T23:04:11.134Z,24.20
2018-08-19T23:06:38.426Z,24.20
2018-08-19T23:09:06.290Z,24.20
2018-08-19T23:11:33.608Z,24.10
2018-08-19T23:14:12.269Z,23.90
2018-08-19T23:16:39.604Z,23.80
2018-08-19T23:19:06.913Z,23.90
2018-08-19T23:21:34.231Z,24.00
2018-08-19T23:24:01.542Z,24.10
2018-08-19T23:26:28.859Z,24.20
2018-08-19T23:28:56.154Z,24.10
2018-08-19T23:31:23.470Z,24.10
2018-08-19T23:33:51.119Z,24.10
2018-08-19T23:36:18.464Z,24.00
2018-08-19T23:38:45.809Z,24.00
2018-08-19T23:41:13.119Z,24.00
2018-08-19T23:43:40.411Z,23.90
2018-08-19T23:46:07.741Z,23.80
2018-08-19T23:48:35.060Z,23.70
2018-08-19T23:51:02.370Z,23.60
2018-08-19T23:53:29.693Z,23.50
2018-08-19T23:55:57.011Z,23.40
2018-08-19T23:58:24.327Z,23.30
